sensor_id;sensor_type;location;lat;lon;timestamp;pressure;altitude;pressure_sealevel;temperature;humidity
45050;BME280;61798;48.048;-1.928;2022-10-31T00:00:07;100965.84;;;10.23;100.00
45050;BME280;61798;48.048;-1.928;2022-10-31T00:02:14;100933.09;;;10.21;100.00
45050;BME280;61798;48.048;-1.928;2022-10-31T00:04:20;100958.03;;;10.37;100.00
45050;BME280;61798;48.048;-1.928;2022-10-31T00:06:26;100954.44;;;10.30;100.00
45050;BME280;61798;48.048;-1.928;2022-10-31T00:08:33;100921.56;;;9.82;100.00
45050;BME280;61798;48.048;-1.928;2022-10-31T00:10:40;100960.25;;;10.18;100.00
45050;BME280;61798;48.048;-1.928;2022-10-31T00:12:46;100947.94;;;10.09;100.00
45050;BME280;61798;48.048;-1.928;2022-10-31T00:14:52;100956.25;;;10.14;100.00
45050;BME280;61798;48.048;-1.928;2022-10-31T00:16:59;100941.28;;;10.20;100.00
45050;BME280;61798;48.048;-1.928;2022-10-31T00:19:06;100955.97;;;10.09;100.00
45050;BME280;61798;48.048;-1.928;2022-10-31T00:21:12;100931.97;;;10.15;100.00
45050;BME280;61798;48.048;-1.928;2022-10-31T00:23:18;100939.53;;;10.12;100.00
45050;BME280;61798;48.048;-1.928;2022-10-31T00:25:24;100934.63;;;10.15;100.00
45050;BME280;61798;48.048;-1.928;2022-10-31T00:27:31;100938.81;;;10.33;100.00
45050;BME280;61798;48.048;-1.928;2022-10-31T00:29:37;100904.53;;;9.98;100.00
45050;BME280;61798;48.048;-1.928;2022-10-31T00:31:43;100916.25;;;10.12;100.00
45050;BME280;61798;48.048;-1.928;2022-10-31T00:33:49;100923.06;;;10.00;100.00
45050;BME280;61798;48.048;-1.928;2022-10-31T00:35:55;100926.81;;;10.14;100.00
45050;BME280;61798;48.048;-1.928;2022-10-31T00:38:01;100927.81;;;10.13;100.00
45050;BME280;61798;48.048;-1.928;2022-10-31T00:40:08;100915.59;;;9.95;100.00
45050;BME280;61798;48.048;-1.928;2022-10-31T00:42:15;100928.63;;;9.98;100.00
45050;BME280;61798;48.048;-1.928;2022-10-31T00:44:21;100932.13;;;9.99;100.00
45050;BME280;61798;48.048;-1.928;2022-10-31T00:46:27;100925.22;;;10.04;100.00
45050;BME280;61798;48.048;-1.928;2022-10-31T00:48:33;100917.72;;;10.00;100.00
45050;BME280;61798;48.048;-1.928;2022-10-31T00:50:40;100913.97;;;10.24;100.00
45050;BME280;61798;48.048;-1.928;2022-10-31T00:52:46;100903.53;;;10.14;100.00
45050;BME280;61798;48.048;-1.928;2022-10-31T00:54:52;100902.41;;;10.09;100.00
45050;BME280;61798;48.048;-1.928;2022-10-31T00:56:58;100901.78;;;10.07;100.00
45050;BME280;61798;48.048;-1.928;2022-10-31T00:59:04;100904.84;;;10.19;100.00
45050;BME280;61798;48.048;-1.928;2022-10-31T01:01:10;100911.75;;;10.13;100.00
45050;BME280;61798;48.048;-1.928;2022-10-31T01:03:16;100918.09;;;9.97;100.00
45050;BME280;61798;48.048;-1.928;2022-10-31T01:05:22;100911.19;;;10.02;100.00
45050;BME280;61798;48.048;-1.928;2022-10-31T01:07:29;100906.47;;;10.04;100.00
45050;BME280;61798;48.048;-1.928;2022-10-31T01:09:35;100912.13;;;10.10;100.00
45050;BME280;61798;48.048;-1.928;2022-10-31T01:11:41;100890.38;;;9.89;100.00
45050;BME280;61798;48.048;-1.928;2022-10-31T01:13:47;100922.53;;;10.04;100.00
45050;BME280;61798;48.048;-1.928;2022-10-31T01:15:56;100919.94;;;10.11;100.00
45050;BME280;61798;48.048;-1.928;2022-10-31T01:18:02;100895.47;;;9.99;100.00
45050;BME280;61798;48.048;-1.928;2022-10-31T01:20:09;100911.28;;;10.09;100.00
45050;BME280;61798;48.048;-1.928;2022-10-31T01:22:16;100900.66;;;10.16;100.00
45050;BME280;61798;48.048;-1.928;2022-10-31T01:24:22;100889.78;;;10.33;100.00
45050;BME280;61798;48.048;-1.928;2022-10-31T01:26:30;100896.59;;;10.35;100.00
45050;BME280;61798;48.048;-1.928;2022-10-31T01:28:38;100895.50;;;10.14;100.00
45050;BME280;61798;48.048;-1.928;2022-10-31T01:30:44;100847.56;;;10.04;100.00
45050;BME280;61798;48.048;-1.928;2022-10-31T01:32:50;100895.41;;;10.38;100.00
45050;BME280;61798;48.048;-1.928;2022-10-31T01:34:56;100850.06;;;10.21;100.00
45050;BME280;61798;48.048;-1.928;2022-10-31T01:37:02;100885.34;;;10.25;100.00
45050;BME280;61798;48.048;-1.928;2022-10-31T01:39:14;100878.50;;;10.38;100.00
45050;BME280;61798;48.048;-1.928;2022-10-31T01:41:22;100877.38;;;10.32;100.00
45050;BME280;61798;48.048;-1.928;2022-10-31T01:43:47;100856.81;;;10.02;100.00
45050;BME280;61798;48.048;-1.928;2022-10-31T01:45:53;100859.09;;;9.90;100.00
45050;BME280;61798;48.048;-1.928;2022-10-31T01:48:00;100865.53;;;9.80;100.00
45050;BME280;61798;48.048;-1.928;2022-10-31T01:50:15;100860.19;;;9.80;100.00
45050;BME280;61798;48.048;-1.928;2022-10-31T01:52:26;100878.28;;;9.78;100.00
45050;BME280;61798;48.048;-1.928;2022-10-31T01:54:41;100853.72;;;9.59;100.00
45050;BME280;61798;48.048;-1.928;2022-10-31T01:56:51;100870.13;;;9.71;100.00
45050;BME280;61798;48.048;-1.928;2022-10-31T01:58:59;100834.91;;;9.44;100.00
45050;BME280;61798;48.048;-1.928;2022-10-31T02:01:07;100862.28;;;9.55;100.00
45050;BME280;61798;48.048;-1.928;2022-10-31T02:03:13;100855.41;;;9.52;100.00
45050;BME280;61798;48.048;-1.928;2022-10-31T02:05:22;100872.16;;;9.69;100.00
45050;BME280;61798;48.048;-1.928;2022-10-31T02:07:39;100844.06;;;9.50;100.00
45050;BME280;61798;48.048;-1.928;2022-10-31T02:09:50;100858.75;;;9.54;100.00
45050;BME280;61798;48.048;-1.928;2022-10-31T02:11:58;100844.69;;;9.37;100.00
45050;BME280;61798;48.048;-1.928;2022-10-31T02:14:05;100863.34;;;9.45;100.00
45050;BME280;61798;48.048;-1.928;2022-10-31T02:16:11;100856.22;;;9.37;100.00
45050;BME280;61798;48.048;-1.928;2022-10-31T02:18:17;100845.34;;;9.39;100.00
45050;BME280;61798;48.048;-1.928;2022-10-31T02:20:25;100860.91;;;9.35;100.00
45050;BME280;61798;48.048;-1.928;2022-10-31T02:25:16;100861.94;;;9.34;100.00
45050;BME280;61798;48.048;-1.928;2022-10-31T02:27:46;100860.31;;;9.25;100.00
45050;BME280;61798;48.048;-1.928;2022-10-31T02:30:11;100833.63;;;9.16;100.00
45050;BME280;61798;48.048;-1.928;2022-10-31T02:36:58;100846.78;;;9.65;100.00
45050;BME280;61798;48.048;-1.928;2022-10-31T02:41:45;100844.97;;;9.81;100.00
45050;BME280;61798;48.048;-1.928;2022-10-31T02:48:54;100841.81;;;9.77;100.00
45050;BME280;61798;48.048;-1.928;2022-10-31T02:51:03;100784.56;;;9.48;100.00
45050;BME280;61798;48.048;-1.928;2022-10-31T02:53:14;100819.28;;;9.71;100.00
45050;BME280;61798;48.048;-1.928;2022-10-31T02:57:34;100807.03;;;9.77;100.00
45050;BME280;61798;48.048;-1.928;2022-10-31T02:59:49;100812.75;;;9.74;100.00
45050;BME280;61798;48.048;-1.928;2022-10-31T03:09:20;100802.88;;;9.75;100.00
45050;BME280;61798;48.048;-1.928;2022-10-31T03:11:34;100800.38;;;9.73;100.00
45050;BME280;61798;48.048;-1.928;2022-10-31T03:13:49;100790.34;;;9.75;100.00
45050;BME280;61798;48.048;-1.928;2022-10-31T03:16:07;100795.56;;;9.83;100.00
45050;BME280;61798;48.048;-1.928;2022-10-31T03:18:26;100795.41;;;9.85;100.00
45050;BME280;61798;48.048;-1.928;2022-10-31T03:21:16;100768.34;;;9.65;100.00
45050;BME280;61798;48.048;-1.928;2022-10-31T03:23:26;100774.00;;;9.70;100.00
45050;BME280;61798;48.048;-1.928;2022-10-31T03:25:35;100761.53;;;9.62;100.00
45050;BME280;61798;48.048;-1.928;2022-10-31T03:27:43;100771.69;;;9.67;100.00
45050;BME280;61798;48.048;-1.928;2022-10-31T03:29:52;100781.47;;;9.75;100.00
45050;BME280;61798;48.048;-1.928;2022-10-31T03:32:04;100727.75;;;9.46;100.00
45050;BME280;61798;48.048;-1.928;2022-10-31T03:34:12;100776.47;;;9.71;100.00
45050;BME280;61798;48.048;-1.928;2022-10-31T03:36:20;100767.34;;;9.66;100.00
45050;BME280;61798;48.048;-1.928;2022-10-31T03:38:27;100722.94;;;9.41;100.00
45050;BME280;61798;48.048;-1.928;2022-10-31T03:40:35;100732.09;;;9.47;100.00
45050;BME280;61798;48.048;-1.928;2022-10-31T03:42:46;100742.03;;;9.53;100.00
45050;BME280;61798;48.048;-1.928;2022-10-31T03:44:58;100767.72;;;9.62;100.00
45050;BME280;61798;48.048;-1.928;2022-10-31T03:47:06;100719.63;;;9.39;100.00
45050;BME280;61798;48.048;-1.928;2022-10-31T03:49:12;100762.00;;;9.66;100.00
45050;BME280;61798;48.048;-1.928;2022-10-31T03:51:44;100711.03;;;9.44;100.00
45050;BME280;61798;48.048;-1.928;2022-10-31T03:57:14;100758.09;;;9.68;100.00
45050;BME280;61798;48.048;-1.928;2022-10-31T03:59:58;100762.91;;;9.73;100.00
45050;BME280;61798;48.048;-1.928;2022-10-31T04:02:10;100760.78;;;9.83;100.00
45050;BME280;61798;48.048;-1.928;2022-10-31T04:04:18;100749.63;;;9.95;100.00
45050;BME280;61798;48.048;-1.928;2022-10-31T04:06:25;100752.75;;;9.99;100.00
45050;BME280;61798;48.048;-1.928;2022-10-31T04:08:36;100743.03;;;10.13;100.00
45050;BME280;61798;48.048;-1.928;2022-10-31T04:10:46;100745.72;;;10.13;100.00
45050;BME280;61798;48.048;-1.928;2022-10-31T04:13:04;100727.56;;;9.93;100.00
45050;BME280;61798;48.048;-1.928;2022-10-31T04:15:12;100710.75;;;9.84;100.00
45050;BME280;61798;48.048;-1.928;2022-10-31T04:17:21;100718.88;;;10.06;100.00
45050;BME280;61798;48.048;-1.928;2022-10-31T04:19:28;100728.84;;;9.97;100.00
45050;BME280;61798;48.048;-1.928;2022-10-31T04:21:34;100698.31;;;9.76;100.00
45050;BME280;61798;48.048;-1.928;2022-10-31T04:23:40;100732.44;;;10.04;100.00
45050;BME280;61798;48.048;-1.928;2022-10-31T04:25:46;100726.31;;;10.26;100.00
45050;BME280;61798;48.048;-1.928;2022-10-31T04:27:52;100733.50;;;10.25;100.00
45050;BME280;61798;48.048;-1.928;2022-10-31T04:29:58;100693.59;;;9.78;100.00
45050;BME280;61798;48.048;-1.928;2022-10-31T04:32:05;100710.13;;;9.82;100.00
45050;BME280;61798;48.048;-1.928;2022-10-31T04:34:11;100710.22;;;9.73;100.00
45050;BME280;61798;48.048;-1.928;2022-10-31T04:36:17;100710.66;;;9.92;100.00
45050;BME280;61798;48.048;-1.928;2022-10-31T04:38:23;100725.81;;;9.85;100.00
45050;BME280;61798;48.048;-1.928;2022-10-31T04:40:29;100719.63;;;9.84;100.00
45050;BME280;61798;48.048;-1.928;2022-10-31T04:42:35;100710.41;;;9.87;100.00
45050;BME280;61798;48.048;-1.928;2022-10-31T04:44:41;100664.25;;;9.85;100.00
45050;BME280;61798;48.048;-1.928;2022-10-31T04:46:47;100677.94;;;9.75;100.00
45050;BME280;61798;48.048;-1.928;2022-10-31T04:48:53;100690.56;;;9.81;100.00
45050;BME280;61798;48.048;-1.928;2022-10-31T04:50:59;100691.56;;;9.80;100.00
45050;BME280;61798;48.048;-1.928;2022-10-31T04:53:06;100703.75;;;9.98;100.00
45050;BME280;61798;48.048;-1.928;2022-10-31T04:55:13;100697.56;;;9.98;100.00
45050;BME280;61798;48.048;-1.928;2022-10-31T04:57:19;100691.09;;;9.92;100.00
45050;BME280;61798;48.048;-1.928;2022-10-31T04:59:25;100692.47;;;10.03;100.00
45050;BME280;61798;48.048;-1.928;2022-10-31T05:01:31;100648.38;;;9.68;100.00
45050;BME280;61798;48.048;-1.928;2022-10-31T05:03:37;100687.47;;;10.00;100.00
45050;BME280;61798;48.048;-1.928;2022-10-31T05:05:45;100669.50;;;10.15;100.00
45050;BME280;61798;48.048;-1.928;2022-10-31T05:07:51;100674.81;;;10.09;100.00
45050;BME280;61798;48.048;-1.928;2022-10-31T05:09:58;100665.50;;;10.04;100.00
45050;BME280;61798;48.048;-1.928;2022-10-31T05:12:04;100669.03;;;9.90;100.00
45050;BME280;61798;48.048;-1.928;2022-10-31T05:14:10;100670.16;;;10.18;100.00
45050;BME280;61798;48.048;-1.928;2022-10-31T05:16:16;100659.41;;;10.33;100.00
45050;BME280;61798;48.048;-1.928;2022-10-31T05:18:22;100635.41;;;10.24;100.00
45050;BME280;61798;48.048;-1.928;2022-10-31T05:20:29;100669.09;;;10.34;100.00
45050;BME280;61798;48.048;-1.928;2022-10-31T05:22:36;100668.84;;;10.29;100.00
45050;BME280;61798;48.048;-1.928;2022-10-31T05:24:42;100676.31;;;10.33;100.00
45050;BME280;61798;48.048;-1.928;2022-10-31T05:26:49;100678.38;;;10.16;100.00
45050;BME280;61798;48.048;-1.928;2022-10-31T05:28:56;100659.31;;;10.04;100.00
45050;BME280;61798;48.048;-1.928;2022-10-31T05:31:02;100674.88;;;10.15;100.00
45050;BME280;61798;48.048;-1.928;2022-10-31T05:33:09;100671.38;;;10.15;100.00
45050;BME280;61798;48.048;-1.928;2022-10-31T05:35:24;100665.38;;;10.13;100.00
45050;BME280;61798;48.048;-1.928;2022-10-31T05:37:31;100658.75;;;10.09;100.00
45050;BME280;61798;48.048;-1.928;2022-10-31T05:39:38;100629.41;;;10.00;100.00
45050;BME280;61798;48.048;-1.928;2022-10-31T05:41:44;100624.94;;;10.08;100.00
45050;BME280;61798;48.048;-1.928;2022-10-31T05:43:51;100621.25;;;10.09;100.00
45050;BME280;61798;48.048;-1.928;2022-10-31T05:45:57;100628.59;;;10.22;100.00
45050;BME280;61798;48.048;-1.928;2022-10-31T05:48:04;100626.94;;;10.43;100.00
45050;BME280;61798;48.048;-1.928;2022-10-31T05:50:11;100623.75;;;10.32;100.00
45050;BME280;61798;48.048;-1.928;2022-10-31T05:52:17;100607.69;;;10.10;100.00
45050;BME280;61798;48.048;-1.928;2022-10-31T05:54:24;100600.84;;;10.30;100.00
45050;BME280;61798;48.048;-1.928;2022-10-31T05:56:30;100612.94;;;10.47;100.00
45050;BME280;61798;48.048;-1.928;2022-10-31T05:58:36;100569.22;;;9.96;100.00
45050;BME280;61798;48.048;-1.928;2022-10-31T06:00:42;100606.34;;;10.21;100.00
45050;BME280;61798;48.048;-1.928;2022-10-31T06:02:48;100557.25;;;9.92;100.00
45050;BME280;61798;48.048;-1.928;2022-10-31T06:04:54;100581.75;;;10.11;100.00
45050;BME280;61798;48.048;-1.928;2022-10-31T06:07:00;100599.69;;;10.39;100.00
45050;BME280;61798;48.048;-1.928;2022-10-31T06:09:06;100572.38;;;10.22;100.00
45050;BME280;61798;48.048;-1.928;2022-10-31T06:11:12;100562.56;;;10.36;100.00
45050;BME280;61798;48.048;-1.928;2022-10-31T06:13:18;100573.50;;;10.34;100.00
45050;BME280;61798;48.048;-1.928;2022-10-31T06:15:24;100574.91;;;10.30;100.00
45050;BME280;61798;48.048;-1.928;2022-10-31T06:17:30;100582.53;;;10.11;100.00
45050;BME280;61798;48.048;-1.928;2022-10-31T06:19:36;100580.06;;;10.10;100.00
45050;BME280;61798;48.048;-1.928;2022-10-31T06:21:42;100581.22;;;10.22;100.00
45050;BME280;61798;48.048;-1.928;2022-10-31T06:23:48;100591.66;;;10.61;100.00
45050;BME280;61798;48.048;-1.928;2022-10-31T06:25:54;100587.41;;;10.23;100.00
45050;BME280;61798;48.048;-1.928;2022-10-31T06:28:01;100572.94;;;10.17;100.00
45050;BME280;61798;48.048;-1.928;2022-10-31T06:30:07;100530.56;;;9.99;100.00
45050;BME280;61798;48.048;-1.928;2022-10-31T06:32:14;100546.72;;;10.34;100.00
45050;BME280;61798;48.048;-1.928;2022-10-31T06:34:21;100505.72;;;10.12;100.00
45050;BME280;61798;48.048;-1.928;2022-10-31T06:36:28;100539.69;;;10.33;100.00
45050;BME280;61798;48.048;-1.928;2022-10-31T06:38:36;100540.75;;;10.39;100.00
45050;BME280;61798;48.048;-1.928;2022-10-31T06:40:42;100520.66;;;9.99;100.00
45050;BME280;61798;48.048;-1.928;2022-10-31T06:42:58;100479.88;;;9.97;100.00
45050;BME280;61798;48.048;-1.928;2022-10-31T06:45:06;100530.44;;;10.36;100.00
45050;BME280;61798;48.048;-1.928;2022-10-31T06:47:13;100516.56;;;10.03;100.00
45050;BME280;61798;48.048;-1.928;2022-10-31T06:49:19;100508.84;;;10.15;100.00
45050;BME280;61798;48.048;-1.928;2022-10-31T06:51:25;100520.81;;;10.20;100.00
45050;BME280;61798;48.048;-1.928;2022-10-31T06:53:33;100511.72;;;10.14;100.00
45050;BME280;61798;48.048;-1.928;2022-10-31T06:55:41;100516.22;;;10.35;100.00
45050;BME280;61798;48.048;-1.928;2022-10-31T06:57:58;100478.84;;;9.98;100.00
45050;BME280;61798;48.048;-1.928;2022-10-31T07:00:06;100474.25;;;10.14;100.00
45050;BME280;61798;48.048;-1.928;2022-10-31T07:02:14;100487.84;;;10.19;100.00
45050;BME280;61798;48.048;-1.928;2022-10-31T07:04:21;100442.56;;;10.18;100.00
45050;BME280;61798;48.048;-1.928;2022-10-31T07:06:29;100485.75;;;10.43;100.00
45050;BME280;61798;48.048;-1.928;2022-10-31T07:08:37;100472.31;;;10.30;100.00
45050;BME280;61798;48.048;-1.928;2022-10-31T07:10:52;100457.44;;;10.27;100.00
45050;BME280;61798;48.048;-1.928;2022-10-31T07:13:03;100472.44;;;10.50;100.00
45050;BME280;61798;48.048;-1.928;2022-10-31T07:15:10;100483.00;;;10.30;100.00
45050;BME280;61798;48.048;-1.928;2022-10-31T07:17:16;100452.06;;;10.27;100.00
45050;BME280;61798;48.048;-1.928;2022-10-31T07:19:23;100467.63;;;10.39;100.00
45050;BME280;61798;48.048;-1.928;2022-10-31T07:21:30;100475.03;;;10.65;100.00
45050;BME280;61798;48.048;-1.928;2022-10-31T07:23:38;100422.97;;;10.17;100.00
45050;BME280;61798;48.048;-1.928;2022-10-31T07:25:44;100483.69;;;10.39;100.00
45050;BME280;61798;48.048;-1.928;2022-10-31T07:27:50;100448.56;;;10.55;100.00
45050;BME280;61798;48.048;-1.928;2022-10-31T07:29:56;100485.72;;;10.59;100.00
45050;BME280;61798;48.048;-1.928;2022-10-31T07:32:03;100502.09;;;10.49;100.00
45050;BME280;61798;48.048;-1.928;2022-10-31T07:34:10;100505.56;;;10.42;100.00
45050;BME280;61798;48.048;-1.928;2022-10-31T07:36:16;100494.19;;;10.40;100.00
45050;BME280;61798;48.048;-1.928;2022-10-31T07:38:24;100503.00;;;10.56;100.00
45050;BME280;61798;48.048;-1.928;2022-10-31T07:40:31;100495.50;;;10.51;100.00
45050;BME280;61798;48.048;-1.928;2022-10-31T07:42:42;100506.34;;;10.65;100.00
45050;BME280;61798;48.048;-1.928;2022-10-31T07:44:49;100494.56;;;10.59;100.00
45050;BME280;61798;48.048;-1.928;2022-10-31T07:46:56;100497.63;;;10.56;100.00
45050;BME280;61798;48.048;-1.928;2022-10-31T07:49:10;100487.44;;;10.73;100.00
45050;BME280;61798;48.048;-1.928;2022-10-31T07:51:22;100488.81;;;10.62;100.00
45050;BME280;61798;48.048;-1.928;2022-10-31T07:53:38;100490.97;;;10.81;100.00
45050;BME280;61798;48.048;-1.928;2022-10-31T07:55:45;100482.66;;;10.68;100.00
45050;BME280;61798;48.048;-1.928;2022-10-31T07:58:03;100475.97;;;10.93;100.00
45050;BME280;61798;48.048;-1.928;2022-10-31T08:00:14;100453.22;;;10.75;100.00
45050;BME280;61798;48.048;-1.928;2022-10-31T08:02:22;100462.31;;;10.81;100.00
45050;BME280;61798;48.048;-1.928;2022-10-31T08:04:37;100437.06;;;10.62;100.00
45050;BME280;61798;48.048;-1.928;2022-10-31T08:06:45;100441.34;;;10.56;100.00
45050;BME280;61798;48.048;-1.928;2022-10-31T08:08:55;100449.06;;;10.73;100.00
45050;BME280;61798;48.048;-1.928;2022-10-31T08:11:05;100421.59;;;10.64;100.00
45050;BME280;61798;48.048;-1.928;2022-10-31T08:13:14;100445.78;;;10.71;100.00
45050;BME280;61798;48.048;-1.928;2022-10-31T08:15:26;100437.75;;;10.77;100.00
45050;BME280;61798;48.048;-1.928;2022-10-31T08:17:36;100433.41;;;10.76;100.00
45050;BME280;61798;48.048;-1.928;2022-10-31T08:19:46;100418.56;;;10.74;100.00
45050;BME280;61798;48.048;-1.928;2022-10-31T08:22:03;100413.81;;;10.76;100.00
45050;BME280;61798;48.048;-1.928;2022-10-31T08:24:19;100431.25;;;10.94;100.00
45050;BME280;61798;48.048;-1.928;2022-10-31T08:26:30;100387.06;;;10.83;100.00
45050;BME280;61798;48.048;-1.928;2022-10-31T08:28:38;100420.72;;;10.99;100.00
45050;BME280;61798;48.048;-1.928;2022-10-31T08:30:48;100411.63;;;10.93;100.00
45050;BME280;61798;48.048;-1.928;2022-10-31T08:33:11;100383.16;;;10.85;100.00
45050;BME280;61798;48.048;-1.928;2022-10-31T08:35:36;100410.00;;;10.99;100.00
45050;BME280;61798;48.048;-1.928;2022-10-31T08:37:53;100402.41;;;11.09;100.00
45050;BME280;61798;48.048;-1.928;2022-10-31T08:40:04;100383.19;;;10.99;100.00
45050;BME280;61798;48.048;-1.928;2022-10-31T08:42:19;100387.56;;;11.14;100.00
45050;BME280;61798;48.048;-1.928;2022-10-31T08:44:26;100333.00;;;10.72;100.00
45050;BME280;61798;48.048;-1.928;2022-10-31T08:46:39;100370.41;;;11.01;100.00
45050;BME280;61798;48.048;-1.928;2022-10-31T08:48:52;100355.13;;;10.95;100.00
45050;BME280;61798;48.048;-1.928;2022-10-31T08:51:00;100370.81;;;11.05;100.00
45050;BME280;61798;48.048;-1.928;2022-10-31T08:53:11;100369.38;;;11.02;100.00
45050;BME280;61798;48.048;-1.928;2022-10-31T08:55:21;100356.00;;;11.09;100.00
45050;BME280;61798;48.048;-1.928;2022-10-31T08:57:36;100359.50;;;11.09;100.00
45050;BME280;61798;48.048;-1.928;2022-10-31T08:59:47;100343.59;;;11.15;100.00
45050;BME280;61798;48.048;-1.928;2022-10-31T09:01:58;100359.31;;;11.18;100.00
45050;BME280;61798;48.048;-1.928;2022-10-31T09:04:07;100334.13;;;11.12;100.00
45050;BME280;61798;48.048;-1.928;2022-10-31T09:06:17;100318.44;;;11.09;100.00
45050;BME280;61798;48.048;-1.928;2022-10-31T09:08:35;100327.94;;;11.25;100.00
45050;BME280;61798;48.048;-1.928;2022-10-31T09:10:46;100330.84;;;11.37;100.00
45050;BME280;61798;48.048;-1.928;2022-10-31T09:13:06;100334.56;;;11.43;100.00
45050;BME280;61798;48.048;-1.928;2022-10-31T09:15:21;100302.38;;;11.29;100.00
45050;BME280;61798;48.048;-1.928;2022-10-31T09:17:30;100307.94;;;11.41;100.00
45050;BME280;61798;48.048;-1.928;2022-10-31T09:19:44;100307.53;;;11.45;100.00
45050;BME280;61798;48.048;-1.928;2022-10-31T09:21:55;100303.81;;;11.46;100.00
45050;BME280;61798;48.048;-1.928;2022-10-31T09:24:05;100302.56;;;11.48;100.00
45050;BME280;61798;48.048;-1.928;2022-10-31T09:26:16;100288.34;;;11.41;100.00
45050;BME280;61798;48.048;-1.928;2022-10-31T09:28:26;100296.16;;;11.49;100.00
45050;BME280;61798;48.048;-1.928;2022-10-31T09:30:34;100272.88;;;11.29;100.00
45050;BME280;61798;48.048;-1.928;2022-10-31T09:32:46;100292.03;;;11.53;100.00
45050;BME280;61798;48.048;-1.928;2022-10-31T09:34:52;100293.28;;;11.58;100.00
45050;BME280;61798;48.048;-1.928;2022-10-31T09:36:58;100284.59;;;11.49;100.00
45050;BME280;61798;48.048;-1.928;2022-10-31T09:39:07;100282.13;;;11.61;100.00
45050;BME280;61798;48.048;-1.928;2022-10-31T09:44:56;100288.31;;;11.68;100.00
45050;BME280;61798;48.048;-1.928;2022-10-31T09:49:58;100259.41;;;11.70;100.00
45050;BME280;61798;48.048;-1.928;2022-10-31T09:52:38;100263.06;;;11.90;100.00
45050;BME280;61798;48.048;-1.928;2022-10-31T09:55:18;100260.56;;;12.02;100.00
45050;BME280;61798;48.048;-1.928;2022-10-31T09:57:33;100251.91;;;11.93;100.00
45050;BME280;61798;48.048;-1.928;2022-10-31T09:59:49;100239.09;;;11.88;100.00
45050;BME280;61798;48.048;-1.928;2022-10-31T10:01:59;100240.59;;;12.30;100.00
45050;BME280;61798;48.048;-1.928;2022-10-31T10:04:24;100243.03;;;12.45;100.00
45050;BME280;61798;48.048;-1.928;2022-10-31T10:06:38;100230.63;;;12.44;100.00
45050;BME280;61798;48.048;-1.928;2022-10-31T10:08:50;100221.22;;;12.61;100.00
45050;BME280;61798;48.048;-1.928;2022-10-31T10:11:36;100231.59;;;12.50;100.00
45050;BME280;61798;48.048;-1.928;2022-10-31T10:21:15;100202.59;;;12.66;100.00
45050;BME280;61798;48.048;-1.928;2022-10-31T10:23:42;100201.97;;;12.64;100.00
45050;BME280;61798;48.048;-1.928;2022-10-31T10:26:05;100193.63;;;12.72;100.00
45050;BME280;61798;48.048;-1.928;2022-10-31T10:28:29;100195.28;;;12.73;100.00
45050;BME280;61798;48.048;-1.928;2022-10-31T10:33:02;100193.88;;;12.96;100.00
45050;BME280;61798;48.048;-1.928;2022-10-31T10:35:23;100192.38;;;13.00;100.00
45050;BME280;61798;48.048;-1.928;2022-10-31T10:37:38;100182.66;;;12.99;100.00
45050;BME280;61798;48.048;-1.928;2022-10-31T10:39:51;100176.44;;;12.99;100.00
45050;BME280;61798;48.048;-1.928;2022-10-31T10:41:59;100166.97;;;12.96;100.00
45050;BME280;61798;48.048;-1.928;2022-10-31T10:44:25;100141.72;;;12.97;100.00
45050;BME280;61798;48.048;-1.928;2022-10-31T10:46:56;100159.66;;;13.22;100.00
45050;BME280;61798;48.048;-1.928;2022-10-31T10:51:58;100145.63;;;13.39;100.00
45050;BME280;61798;48.048;-1.928;2022-10-31T10:54:18;100134.28;;;13.37;100.00
45050;BME280;61798;48.048;-1.928;2022-10-31T10:56:42;100125.75;;;13.40;100.00
45050;BME280;61798;48.048;-1.928;2022-10-31T10:58:53;100095.53;;;13.38;100.00
45050;BME280;61798;48.048;-1.928;2022-10-31T11:01:13;100114.81;;;13.54;100.00
45050;BME280;61798;48.048;-1.928;2022-10-31T11:03:29;100112.88;;;13.80;100.00
45050;BME280;61798;48.048;-1.928;2022-10-31T11:05:43;100113.22;;;14.15;100.00
45050;BME280;61798;48.048;-1.928;2022-10-31T11:07:51;100111.16;;;13.98;100.00
45050;BME280;61798;48.048;-1.928;2022-10-31T11:10:06;100096.13;;;13.78;100.00
45050;BME280;61798;48.048;-1.928;2022-10-31T11:12:22;100104.16;;;13.97;100.00
45050;BME280;61798;48.048;-1.928;2022-10-31T11:14:30;100086.56;;;13.94;100.00
45050;BME280;61798;48.048;-1.928;2022-10-31T11:16:42;100087.97;;;14.28;100.00
45050;BME280;61798;48.048;-1.928;2022-10-31T11:18:49;100059.19;;;14.10;100.00
45050;BME280;61798;48.048;-1.928;2022-10-31T11:20:57;100039.44;;;14.16;100.00
45050;BME280;61798;48.048;-1.928;2022-10-31T11:23:15;100072.88;;;14.63;100.00
45050;BME280;61798;48.048;-1.928;2022-10-31T11:25:24;100073.91;;;14.50;100.00
45050;BME280;61798;48.048;-1.928;2022-10-31T11:27:32;100030.75;;;14.14;100.00
45050;BME280;61798;48.048;-1.928;2022-10-31T11:29:38;100031.81;;;14.13;100.00
45050;BME280;61798;48.048;-1.928;2022-10-31T11:31:45;100060.88;;;14.35;100.00
45050;BME280;61798;48.048;-1.928;2022-10-31T11:34:01;100063.22;;;14.19;100.00
45050;BME280;61798;48.048;-1.928;2022-10-31T11:36:20;100052.19;;;14.09;100.00
45050;BME280;61798;48.048;-1.928;2022-10-31T11:38:48;100044.66;;;13.99;100.00
45050;BME280;61798;48.048;-1.928;2022-10-31T11:41:18;100050.19;;;14.04;100.00
45050;BME280;61798;48.048;-1.928;2022-10-31T11:43:25;100016.44;;;14.01;100.00
45050;BME280;61798;48.048;-1.928;2022-10-31T11:45:33;100009.16;;;14.02;100.00
45050;BME280;61798;48.048;-1.928;2022-10-31T11:47:48;100001.34;;;14.00;100.00
45050;BME280;61798;48.048;-1.928;2022-10-31T11:49:57;100010.69;;;14.10;100.00
45050;BME280;61798;48.048;-1.928;2022-10-31T11:52:13;99999.34;;;14.08;100.00